Time;durP1;ratioP1;P1;durP2;ratioP2;P2;SDS_P1;SDS_P2;PMS_P1;PMS_P2;Temp;Humidity;BMP_temperature;BMP_pressure;BME280_temperature;BME280_humidity;BME280_pressure;Samples;Min_cycle;Max_cycle;Signal;HPM_P1;HPM_P2
2024/01/28 00:01:01;;;;;;;5.05;3.28;;;;;;;;;;6202637;23;20013;-79
2024/01/28 00:03:52;;;;;;;7.47;2.72;;;;;;;;;;6203310;23;20025;-80
2024/01/28 00:06:40;;;;;;;7.30;3.10;;;;;;;;;;6204025;23;20021;-80
2024/01/28 00:09:26;;;;;;;3.97;2.65;;;;;;;;;;6204176;23;20025;-80
2024/01/28 00:12:12;;;;;;;6.90;3.40;;;;;;;;;;6182584;23;20013;-80
2024/01/28 00:15:00;;;;;;;5.15;2.72;;;;;;;;;;6198694;23;20025;-79
2024/01/28 00:17:46;;;;;;;6.90;2.88;;;;;;;;;;6204700;23;20021;-80
2024/01/28 00:20:32;;;;;;;7.20;3.15;;;;;;;;;;6205740;23;20017;-79
2024/01/28 00:23:19;;;;;;;4.38;2.90;;;;;;;;;;6201894;23;20025;-79
2024/01/28 00:26:07;;;;;;;4.25;2.78;;;;;;;;;;6204222;23;20017;-79
2024/01/28 00:28:55;;;;;;;5.07;2.40;;;;;;;;;;6203628;23;20017;-79
2024/01/28 00:31:45;;;;;;;5.50;2.83;;;;;;;;;;6203759;23;20017;-79
2024/01/28 00:34:31;;;;;;;3.90;2.70;;;;;;;;;;6205152;23;20024;-79
2024/01/28 00:37:19;;;;;;;3.95;2.17;;;;;;;;;;6185079;23;20017;-80
2024/01/28 00:40:07;;;;;;;9.70;3.47;;;;;;;;;;6205823;23;20021;-79
2024/01/28 00:42:58;;;;;;;3.47;2.45;;;;;;;;;;6204644;23;20029;-79
2024/01/28 00:45:47;;;;;;;4.40;2.28;;;;;;;;;;6204025;23;20017;-81
2024/01/28 00:48:34;;;;;;;4.43;2.60;;;;;;;;;;6205865;23;20017;-79
2024/01/28 00:51:19;;;;;;;3.90;2.22;;;;;;;;;;6206501;23;20465;-79
2024/01/28 00:54:06;;;;;;;7.72;2.13;;;;;;;;;;6224638;23;20060;-79
2024/01/28 00:56:52;;;;;;;3.63;2.15;;;;;;;;;;6218027;23;20073;-80
2024/01/28 00:59:38;;;;;;;3.72;1.67;;;;;;;;;;6224135;23;20089;-80
2024/01/28 01:02:24;;;;;;;9.48;2.25;;;;;;;;;;6212026;23;20016;-80
2024/01/28 01:05:12;;;;;;;2.83;1.52;;;;;;;;;;6229461;23;20021;-80
2024/01/28 01:08:00;;;;;;;2.60;1.48;;;;;;;;;;6208495;23;20020;-80
2024/01/28 01:10:46;;;;;;;2.33;1.55;;;;;;;;;;6184647;23;20039;-79
2024/01/28 01:13:35;;;;;;;3.13;1.55;;;;;;;;;;6185437;23;20021;-80
2024/01/28 01:16:23;;;;;;;2.60;1.55;;;;;;;;;;6180930;23;20025;-79
2024/01/28 01:19:09;;;;;;;3.90;1.88;;;;;;;;;;6182666;23;20021;-79
2024/01/28 01:21:57;;;;;;;3.13;1.58;;;;;;;;;;6204412;23;20017;-80
2024/01/28 01:24:42;;;;;;;7.93;1.75;;;;;;;;;;6205148;23;20021;-79
2024/01/28 01:27:28;;;;;;;3.50;1.85;;;;;;;;;;6203914;23;20024;-79
2024/01/28 01:30:17;;;;;;;6.65;2.08;;;;;;;;;;6206173;23;20181;-79
2024/01/28 01:33:05;;;;;;;3.78;2.00;;;;;;;;;;6204153;23;20013;-81
2024/01/28 01:35:54;;;;;;;4.15;1.92;;;;;;;;;;6204058;23;20017;-79
2024/01/28 01:38:41;;;;;;;3.67;2.08;;;;;;;;;;6182872;23;20025;-79
2024/01/28 01:41:31;;;;;;;4.22;2.05;;;;;;;;;;6203569;23;20024;-80
2024/01/28 01:44:17;;;;;;;4.28;2.20;;;;;;;;;;6204342;23;20017;-79
2024/01/28 01:47:03;;;;;;;3.03;1.80;;;;;;;;;;6183249;23;20021;-79
2024/01/28 01:49:50;;;;;;;2.97;1.55;;;;;;;;;;6206165;23;20457;-79
2024/01/28 01:52:36;;;;;;;3.17;1.50;;;;;;;;;;6203930;23;20017;-79
2024/01/28 01:55:23;;;;;;;10.77;2.03;;;;;;;;;;6204744;23;20017;-79
2024/01/28 01:58:13;;;;;;;4.20;2.35;;;;;;;;;;6206309;23;20028;-79
2024/01/28 02:01:07;;;;;;;3.75;2.05;;;;;;;;;;6204573;23;20021;-79
2024/01/28 02:03:54;;;;;;;3.40;1.73;;;;;;;;;;6203910;23;20017;-79
2024/01/28 02:06:40;;;;;;;2.50;1.95;;;;;;;;;;6203208;23;20017;-79
2024/01/28 02:09:26;;;;;;;3.08;1.45;;;;;;;;;;6204764;23;20024;-79
2024/01/28 02:12:13;;;;;;;3.22;2.22;;;;;;;;;;6204728;23;20017;-80
2024/01/28 02:15:07;;;;;;;7.82;2.25;;;;;;;;;;6182327;23;20021;-79
2024/01/28 02:17:55;;;;;;;3.38;2.00;;;;;;;;;;6182259;23;20020;-80
2024/01/28 02:20:46;;;;;;;2.03;1.33;;;;;;;;;;6204313;23;20021;-79
2024/01/28 02:23:58;;;;;;;3.17;1.50;;;;;;;;;;6206134;23;20021;-79
2024/01/28 02:26:47;;;;;;;3.00;1.67;;;;;;;;;;6198944;23;20021;-79
2024/01/28 02:29:35;;;;;;;5.38;2.05;;;;;;;;;;6204813;23;20017;-79
2024/01/28 02:32:21;;;;;;;5.38;2.70;;;;;;;;;;6203132;23;20449;-79
2024/01/28 02:35:07;;;;;;;4.97;2.03;;;;;;;;;;6204067;23;20020;-80
2024/01/28 02:37:56;;;;;;;4.25;2.30;;;;;;;;;;6219055;23;20013;-79
2024/01/28 02:40:49;;;;;;;6.60;2.05;;;;;;;;;;6222834;23;20053;-79
2024/01/28 02:43:35;;;;;;;;;;;;;;;;;;6185123;23;20327;-79
2024/01/28 02:46:21;;;;;;;2.67;1.60;;;;;;;;;;6183029;23;19922;-79
2024/01/28 02:49:07;;;;;;;4.20;2.05;;;;;;;;;;6205235;23;20021;-79
2024/01/28 02:51:56;;;;;;;1.85;1.10;;;;;;;;;;6203067;23;20013;-79
2024/01/28 02:54:41;;;;;;;3.85;1.73;;;;;;;;;;6203434;23;20020;-79
2024/01/28 02:57:31;;;;;;;4.93;2.20;;;;;;;;;;6215822;23;20025;-80
2024/01/28 03:00:18;;;;;;;3.97;2.03;;;;;;;;;;6203521;23;20013;-79
2024/01/28 03:03:05;;;;;;;3.65;2.10;;;;;;;;;;6204285;23;20021;-79
2024/01/28 03:05:51;;;;;;;2.95;1.83;;;;;;;;;;6201400;23;20017;-80
2024/01/28 03:08:39;;;;;;;7.68;1.75;;;;;;;;;;6205152;23;20046;-80
2024/01/28 03:11:25;;;;;;;3.88;1.88;;;;;;;;;;6224400;23;20020;-79
2024/01/28 03:14:15;;;;;;;3.38;1.40;;;;;;;;;;6191192;23;20021;-81
2024/01/28 03:17:04;;;;;;;4.65;2.10;;;;;;;;;;6191492;23;20465;-81
2024/01/28 03:19:50;;;;;;;11.55;1.73;;;;;;;;;;6155748;23;20021;-81
2024/01/28 03:22:36;;;;;;;4.03;1.60;;;;;;;;;;6176928;23;20019;-81
2024/01/28 03:25:22;;;;;;;3.35;1.58;;;;;;;;;;6175760;23;20021;-81
2024/01/28 03:28:08;;;;;;;5.38;1.55;;;;;;;;;;6175377;23;20017;-81
2024/01/28 03:30:58;;;;;;;4.28;2.00;;;;;;;;;;6175213;23;20016;-81
2024/01/28 03:33:46;;;;;;;2.75;1.20;;;;;;;;;;6175972;23;20017;-81
2024/01/28 03:36:32;;;;;;;2.25;1.55;;;;;;;;;;6175778;23;20021;-81
2024/01/28 03:39:18;;;;;;;2.53;1.45;;;;;;;;;;6153267;23;20021;-81
2024/01/28 03:42:04;;;;;;;6.20;1.83;;;;;;;;;;6174873;23;20013;-80
2024/01/28 03:44:53;;;;;;;2.00;1.30;;;;;;;;;;6154593;23;20021;-80
2024/01/28 03:47:40;;;;;;;2.85;1.52;;;;;;;;;;6155283;23;20454;-80
2024/01/28 03:50:26;;;;;;;1.73;1.33;;;;;;;;;;6196962;23;20025;-80
2024/01/28 03:53:14;;;;;;;2.90;1.60;;;;;;;;;;6154377;23;20017;-80
2024/01/28 03:56:03;;;;;;;3.60;1.30;;;;;;;;;;6195234;23;20021;-80
2024/01/28 03:58:51;;;;;;;2.85;1.40;;;;;;;;;;6175533;23;20017;-80
2024/01/28 04:01:37;;;;;;;5.95;1.20;;;;;;;;;;6197467;23;20017;-80
2024/01/28 04:04:29;;;;;;;4.15;2.10;;;;;;;;;;6174311;23;20017;-80
2024/01/28 04:07:15;;;;;;;2.80;1.77;;;;;;;;;;6174815;23;20028;-80
2024/01/28 04:10:01;;;;;;;1.98;1.27;;;;;;;;;;6174713;23;20547;-80
2024/01/28 04:12:47;;;;;;;2.30;1.65;;;;;;;;;;6174321;23;20013;-79
2024/01/28 04:15:33;;;;;;;3.35;1.75;;;;;;;;;;6172586;23;20124;-79
2024/01/28 04:18:21;;;;;;;2.53;1.17;;;;;;;;;;6174267;23;20372;-81
2024/01/28 04:21:11;;;;;;;2.90;1.60;;;;;;;;;;6195336;23;20025;-79
2024/01/28 04:23:57;;;;;;;3.20;1.60;;;;;;;;;;6173345;23;20019;-80
2024/01/28 04:26:43;;;;;;;7.47;1.77;;;;;;;;;;6153318;23;20021;-80
2024/01/28 04:29:29;;;;;;;4.15;1.77;;;;;;;;;;6173203;23;20021;-80
2024/01/28 04:32:15;;;;;;;2.58;1.65;;;;;;;;;;6174156;23;20013;-80
2024/01/28 04:35:04;;;;;;;1.55;1.20;;;;;;;;;;6153777;23;20029;-80
2024/01/28 04:37:52;;;;;;;4.15;1.90;;;;;;;;;;6174369;23;20385;-80
2024/01/28 04:40:40;;;;;;;6.13;1.48;;;;;;;;;;6175222;23;20024;-80
2024/01/28 04:43:26;;;;;;;5.38;1.25;;;;;;;;;;6155127;23;20016;-80
2024/01/28 04:46:16;;;;;;;1.98;1.17;;;;;;;;;;6176181;23;20021;-80
2024/01/28 04:49:08;;;;;;;3.85;2.00;;;;;;;;;;6158422;23;20021;-80
2024/01/28 04:51:54;;;;;;;6.00;1.17;;;;;;;;;;6179255;23;20021;-80
2024/01/28 04:54:47;;;;;;;2.42;1.58;;;;;;;;;;6157310;23;20585;-80
2024/01/28 04:57:35;;;;;;;3.38;2.05;;;;;;;;;;6178444;23;20021;-80
2024/01/28 05:00:24;;;;;;;3.00;2.08;;;;;;;;;;6200857;23;20021;-80
2024/01/28 05:03:10;;;;;;;2.15;1.20;;;;;;;;;;6200310;23;20025;-80
2024/01/28 05:05:56;;;;;;;3.35;1.88;;;;;;;;;;6176809;23;20024;-80
2024/01/28 05:08:43;;;;;;;6.35;1.48;;;;;;;;;;6158748;23;20347;-80
2024/01/28 05:11:31;;;;;;;2.60;1.00;;;;;;;;;;6177292;23;20021;-80
2024/01/28 05:14:20;;;;;;;3.17;1.45;;;;;;;;;;6191634;23;20013;-80
2024/01/28 05:17:06;;;;;;;2.80;1.20;;;;;;;;;;6157652;23;20021;-80
2024/01/28 05:19:51;;;;;;;2.33;1.98;;;;;;;;;;6177859;23;20021;-80
2024/01/28 05:22:41;;;;;;;7.18;1.90;;;;;;;;;;6176931;23;20025;-80
2024/01/28 05:25:28;;;;;;;2.22;1.35;;;;;;;;;;6177479;23;20021;-80
2024/01/28 05:28:17;;;;;;;4.07;2.00;;;;;;;;;;6177410;23;20021;-80
2024/01/28 05:31:03;;;;;;;4.25;1.27;;;;;;;;;;6178285;23;20020;-80
2024/01/28 05:33:49;;;;;;;2.63;0.98;;;;;;;;;;6174631;23;20484;-80
2024/01/28 05:36:37;;;;;;;4.70;2.13;;;;;;;;;;6194395;23;20335;-80
2024/01/28 05:39:23;;;;;;;2.80;1.65;;;;;;;;;;6155447;23;20017;-80
2024/01/28 05:42:11;;;;;;;5.65;1.85;;;;;;;;;;6177317;23;20021;-80
2024/01/28 05:45:03;;;;;;;1.67;1.05;;;;;;;;;;6206362;23;20017;-80
2024/01/28 05:47:49;;;;;;;3.15;1.50;;;;;;;;;;6190869;23;20025;-79
2024/01/28 05:50:37;;;;;;;3.17;1.55;;;;;;;;;;6175878;23;20323;-79
2024/01/28 05:53:26;;;;;;;5.75;1.38;;;;;;;;;;6175877;23;20021;-80
2024/01/28 05:56:11;;;;;;;1.88;1.27;;;;;;;;;;6195651;23;20025;-80
2024/01/28 05:59:03;;;;;;;4.95;1.25;;;;;;;;;;6175802;23;20021;-79
2024/01/28 06:01:50;;;;;;;2.55;1.77;;;;;;;;;;6176969;23;20454;-79
2024/01/28 06:04:41;;;;;;;1.23;1.13;;;;;;;;;;6174512;23;20465;-80
2024/01/28 06:07:27;;;;;;;1.85;1.02;;;;;;;;;;6175392;23;20025;-80
2024/01/28 06:10:14;;;;;;;2.03;1.40;;;;;;;;;;6174984;23;20335;-80
2024/01/28 06:13:02;;;;;;;2.80;1.45;;;;;;;;;;6173020;23;20013;-80
2024/01/28 06:15:52;;;;;;;4.28;1.00;;;;;;;;;;6174998;23;20025;-80
2024/01/28 06:18:44;;;;;;;1.75;1.13;;;;;;;;;;6199410;23;20021;-81
2024/01/28 06:21:29;;;;;;;2.63;1.75;;;;;;;;;;6176785;23;20020;-81
2024/01/28 06:24:15;;;;;;;1.60;1.02;;;;;;;;;;6154445;23;20331;-81
2024/01/28 06:27:01;;;;;;;1.85;1.35;;;;;;;;;;6170324;23;20020;-81
2024/01/28 06:29:49;;;;;;;2.20;1.08;;;;;;;;;;6199614;23;20021;-81
2024/01/28 06:32:37;;;;;;;6.72;1.52;;;;;;;;;;6198151;23;20021;-81
2024/01/28 06:35:29;;;;;;;;;;;;;;;;;;6176767;23;20463;-81
2024/01/28 06:38:15;;;;;;;1.50;0.88;;;;;;;;;;6177791;23;19924;-81
2024/01/28 06:41:01;;;;;;;1.40;0.75;;;;;;;;;;6178207;23;20377;-81
2024/01/28 06:43:47;;;;;;;1.58;1.02;;;;;;;;;;6201538;23;20016;-80
2024/01/28 06:46:35;;;;;;;7.00;1.65;;;;;;;;;;6161687;23;20029;-80
2024/01/28 06:49:24;;;;;;;3.55;1.52;;;;;;;;;;6162053;23;20021;-80
2024/01/28 06:52:11;;;;;;;1.83;1.10;;;;;;;;;;6205888;23;20021;-80
2024/01/28 06:55:04;;;;;;;1.95;1.27;;;;;;;;;;6185958;23;20013;-80
2024/01/28 06:57:50;;;;;;;2.92;1.38;;;;;;;;;;6166074;23;20028;-80
2024/01/28 07:00:36;;;;;;;6.95;1.75;;;;;;;;;;6186778;23;20017;-80
2024/01/28 07:03:27;;;;;;;1.17;0.77;;;;;;;;;;6165856;23;20016;-80
2024/01/28 07:06:14;;;;;;;2.67;1.35;;;;;;;;;;6182661;23;20020;-80
2024/01/28 07:09:01;;;;;;;7.38;1.75;;;;;;;;;;6186709;23;20017;-80
2024/01/28 07:11:47;;;;;;;2.38;1.35;;;;;;;;;;6187063;23;20020;-80
2024/01/28 07:14:33;;;;;;;2.97;1.40;;;;;;;;;;6186326;23;20017;-80
2024/01/28 07:17:19;;;;;;;1.42;1.30;;;;;;;;;;6185243;23;20021;-80
2024/01/28 07:20:06;;;;;;;1.70;1.08;;;;;;;;;;6186651;23;20017;-80
2024/01/28 07:22:55;;;;;;;2.15;1.45;;;;;;;;;;6166483;23;20021;-80
2024/01/28 07:25:42;;;;;;;5.43;1.83;;;;;;;;;;6186343;23;20017;-80
2024/01/28 07:28:33;;;;;;;1.85;1.20;;;;;;;;;;6164411;23;20021;-80
2024/01/28 07:31:21;;;;;;;3.80;1.25;;;;;;;;;;6185136;23;20362;-80
2024/01/28 07:34:07;;;;;;;1.95;1.42;;;;;;;;;;6185367;23;20021;-80
2024/01/28 07:36:56;;;;;;;3.00;1.30;;;;;;;;;;6186187;23;20017;-80
2024/01/28 07:39:42;;;;;;;6.28;1.25;;;;;;;;;;6186340;23;20032;-80
2024/01/28 07:42:32;;;;;;;2.55;1.60;;;;;;;;;;6185362;23;20021;-80
2024/01/28 07:45:21;;;;;;;1.75;1.15;;;;;;;;;;6207777;23;20013;-80
2024/01/28 07:48:08;;;;;;;3.03;1.33;;;;;;;;;;6164697;23;20024;-80
2024/01/28 07:50:59;;;;;;;1.60;1.48;;;;;;;;;;6184924;23;20017;-80
2024/01/28 07:53:44;;;;;;;2.90;1.40;;;;;;;;;;6204986;23;20017;-80
2024/01/28 07:56:33;;;;;;;3.35;1.55;;;;;;;;;;6184970;23;20021;-80
2024/01/28 07:59:23;;;;;;;2.17;1.15;;;;;;;;;;6185053;23;20021;-80
2024/01/28 08:02:11;;;;;;;3.85;1.83;;;;;;;;;;6165186;23;20021;-80
2024/01/28 08:04:58;;;;;;;3.75;2.10;;;;;;;;;;6184667;23;20017;-80
2024/01/28 08:07:45;;;;;;;4.60;3.10;;;;;;;;;;6186083;23;20093;-80
2024/01/28 08:10:31;;;;;;;3.47;2.33;;;;;;;;;;6165005;23;20021;-80
2024/01/28 08:13:17;;;;;;;8.18;2.58;;;;;;;;;;6181436;23;20017;-80
2024/01/28 08:16:05;;;;;;;3.75;2.35;;;;;;;;;;6179524;23;20020;-81
2024/01/28 08:18:51;;;;;;;6.10;3.05;;;;;;;;;;6211204;23;20021;-81
2024/01/28 08:21:36;;;;;;;7.85;4.47;;;;;;;;;;6213693;23;20335;-80
2024/01/28 08:24:23;;;;;;;9.02;4.10;;;;;;;;;;6188909;23;20021;-80
2024/01/28 08:27:09;;;;;;;12.75;4.82;;;;;;;;;;6169845;23;20021;-81
2024/01/28 08:29:57;;;;;;;7.32;3.40;;;;;;;;;;6211328;23;20027;-81
2024/01/28 08:32:47;;;;;;;19.10;6.03;;;;;;;;;;6211507;23;20025;-80
2024/01/28 08:35:36;;;;;;;16.15;6.50;;;;;;;;;;6168392;23;20027;-81
2024/01/28 08:38:22;;;;;;;13.65;6.07;;;;;;;;;;6165682;23;20021;-81
2024/01/28 08:41:13;;;;;;;16.50;5.78;;;;;;;;;;6185417;23;20025;-80
2024/01/28 08:44:02;;;;;;;12.95;6.47;;;;;;;;;;6185431;23;20017;-81
2024/01/28 08:46:51;;;;;;;8.43;3.92;;;;;;;;;;6179518;23;20021;-80
2024/01/28 08:49:39;;;;;;;6.75;3.50;;;;;;;;;;6164626;23;20017;-81
2024/01/28 08:52:27;;;;;;;12.18;5.82;;;;;;;;;;6186936;23;20017;-81
2024/01/28 08:55:15;;;;;;;14.75;6.40;;;;;;;;;;6185538;23;20024;-81
2024/01/28 08:58:01;;;;;;;10.77;5.25;;;;;;;;;;6207221;23;20025;-80
2024/01/28 09:00:49;;;;;;;11.65;5.72;;;;;;;;;;6186022;23;20025;-80
2024/01/28 09:03:38;;;;;;;30.17;10.02;;;;;;;;;;6184741;23;20024;-81
2024/01/28 09:06:28;;;;;;;20.63;8.05;;;;;;;;;;6182210;23;20040;-80
2024/01/28 09:09:16;;;;;;;11.93;5.35;;;;;;;;;;6207312;23;20017;-80
2024/01/28 09:12:04;;;;;;;8.65;5.25;;;;;;;;;;6207292;23;20017;-80
2024/01/28 09:15:02;;;;;;;11.45;5.57;;;;;;;;;;6198079;23;20021;-81
2024/01/28 09:17:48;;;;;;;10.00;5.60;;;;;;;;;;6167457;23;20017;-82
2024/01/28 09:20:34;;;;;;;15.02;6.00;;;;;;;;;;6141996;23;20017;-82
2024/01/28 09:23:24;;;;;;;8.25;4.53;;;;;;;;;;6161563;23;20013;-81
2024/01/28 09:26:10;;;;;;;7.95;4.45;;;;;;;;;;6182795;23;20021;-81
2024/01/28 09:28:56;;;;;;;10.23;4.38;;;;;;;;;;6139594;23;20017;-80
2024/01/28 09:31:44;;;;;;;8.35;4.25;;;;;;;;;;6158328;23;20025;-80
2024/01/28 09:34:30;;;;;;;6.03;3.22;;;;;;;;;;6158398;23;20021;-80
2024/01/28 09:37:19;;;;;;;7.25;2.65;;;;;;;;;;6161108;23;20013;-81
2024/01/28 09:40:07;;;;;;;9.40;4.72;;;;;;;;;;6180152;23;20044;-81
2024/01/28 09:43:00;;;;;;;5.65;3.33;;;;;;;;;;6181136;23;20017;-80
2024/01/28 09:45:49;;;;;;;6.90;3.80;;;;;;;;;;6158449;23;20017;-80
2024/01/28 09:48:37;;;;;;;7.93;4.65;;;;;;;;;;6159637;23;20025;-81
2024/01/28 09:51:26;;;;;;;;;;;;;;;;;;6200505;23;20481;-80
2024/01/28 09:54:12;;;;;;;7.50;3.78;;;;;;;;;;6179227;23;20435;-79
2024/01/28 09:57:03;;;;;;;9.13;4.10;;;;;;;;;;6181131;23;20024;-80
2024/01/28 09:59:51;;;;;;;7.03;3.08;;;;;;;;;;6159014;23;20017;-80
2024/01/28 10:02:39;;;;;;;8.85;2.95;;;;;;;;;;6157080;23;20021;-81
2024/01/28 10:05:24;;;;;;;4.57;2.83;;;;;;;;;;6176055;23;20017;-80
2024/01/28 10:08:10;;;;;;;12.65;4.80;;;;;;;;;;6179396;23;20021;-81
2024/01/28 10:10:57;;;;;;;8.07;3.70;;;;;;;;;;6159702;23;20021;-81
2024/01/28 10:13:45;;;;;;;5.40;3.28;;;;;;;;;;6157122;23;20017;-80
2024/01/28 10:16:32;;;;;;;5.38;3.47;;;;;;;;;;6159252;23;20017;-80
2024/01/28 10:19:20;;;;;;;5.45;3.03;;;;;;;;;;6158579;23;20020;-79
2024/01/28 10:22:06;;;;;;;6.18;2.72;;;;;;;;;;6158549;23;20024;-80
2024/01/28 10:24:52;;;;;;;6.90;2.70;;;;;;;;;;6178802;23;20021;-80
2024/01/28 10:27:38;;;;;;;7.88;3.65;;;;;;;;;;6159202;23;20017;-80
2024/01/28 10:30:26;;;;;;;4.07;2.50;;;;;;;;;;6179536;23;20021;-80
2024/01/28 10:33:12;;;;;;;4.97;2.78;;;;;;;;;;6159705;23;20016;-81
2024/01/28 10:35:59;;;;;;;8.10;3.25;;;;;;;;;;6157633;23;20315;-80
2024/01/28 10:38:46;;;;;;;8.82;3.00;;;;;;;;;;6158524;23;20017;-80
2024/01/28 10:41:33;;;;;;;6.35;3.20;;;;;;;;;;6179803;23;20141;-80
2024/01/28 10:44:20;;;;;;;5.05;2.58;;;;;;;;;;6202445;23;20017;-80
2024/01/28 10:47:12;;;;;;;5.50;2.63;;;;;;;;;;6157988;23;20445;-81
2024/01/28 10:50:02;;;;;;;4.90;3.45;;;;;;;;;;6154417;23;20338;-80
2024/01/28 10:52:49;;;;;;;7.82;3.08;;;;;;;;;;6179113;23;20017;-80
2024/01/28 10:55:35;;;;;;;5.72;2.65;;;;;;;;;;6178141;23;20465;-82
2024/01/28 10:58:21;;;;;;;5.10;3.30;;;;;;;;;;6157397;23;20327;-81
2024/01/28 11:01:10;;;;;;;4.55;2.63;;;;;;;;;;6158388;23;20020;-81
2024/01/28 11:03:58;;;;;;;6.03;2.40;;;;;;;;;;6157437;23;20342;-81
2024/01/28 11:06:44;;;;;;;6.93;2.58;;;;;;;;;;6173232;23;20013;-81
2024/01/28 11:09:33;;;;;;;5.55;2.70;;;;;;;;;;6179366;23;20024;-81
2024/01/28 11:12:19;;;;;;;7.03;2.85;;;;;;;;;;6158023;23;20017;-81
2024/01/28 11:15:12;;;;;;;9.75;2.85;;;;;;;;;;6178489;23;20037;-81
2024/01/28 11:17:58;;;;;;;5.63;2.38;;;;;;;;;;6157933;23;20017;-81
2024/01/28 11:20:46;;;;;;;3.50;2.08;;;;;;;;;;6149351;23;20052;-81
2024/01/28 11:23:32;;;;;;;3.03;1.58;;;;;;;;;;6200319;23;20020;-81
2024/01/28 11:26:19;;;;;;;5.38;2.53;;;;;;;;;;6156289;23;20021;-81
2024/01/28 11:29:08;;;;;;;3.70;2.13;;;;;;;;;;6201428;23;20021;-81
2024/01/28 11:31:55;;;;;;;5.32;2.65;;;;;;;;;;6158081;23;20021;-81
2024/01/28 11:34:44;;;;;;;4.25;2.58;;;;;;;;;;6200953;23;20025;-82
2024/01/28 11:37:34;;;;;;;4.45;2.05;;;;;;;;;;6177901;23;20017;-81
2024/01/28 11:40:22;;;;;;;4.05;2.30;;;;;;;;;;6157319;23;20021;-81
2024/01/28 11:43:09;;;;;;;6.55;3.10;;;;;;;;;;6178497;23;20021;-80
2024/01/28 11:45:56;;;;;;;4.13;2.17;;;;;;;;;;6177371;23;20017;-80
2024/01/28 11:48:42;;;;;;;5.50;2.42;;;;;;;;;;6157493;23;20017;-81
2024/01/28 11:51:31;;;;;;;4.00;2.25;;;;;;;;;;6160528;23;20021;-80
2024/01/28 11:54:19;;;;;;;4.97;2.67;;;;;;;;;;6178919;23;20327;-81
2024/01/28 11:57:07;;;;;;;3.60;1.70;;;;;;;;;;6180852;23;20013;-81
2024/01/28 11:59:54;;;;;;;6.32;2.33;;;;;;;;;;6159196;23;20025;-81
2024/01/28 12:02:43;;;;;;;5.80;2.30;;;;;;;;;;6179889;23;20017;-81
2024/01/28 12:05:29;;;;;;;4.85;2.05;;;;;;;;;;6138690;23;20013;-81
2024/01/28 12:08:26;;;;;;;3.47;2.08;;;;;;;;;;6180642;23;20334;-81
2024/01/28 12:11:16;;;;;;;4.68;1.85;;;;;;;;;;6160669;23;20017;-81
2024/01/28 12:14:03;;;;;;;3.22;1.80;;;;;;;;;;6158785;23;20029;-80
2024/01/28 12:16:49;;;;;;;6.70;2.28;;;;;;;;;;6159848;23;20017;-81
2024/01/28 12:19:40;;;;;;;4.57;2.38;;;;;;;;;;6159243;23;20016;-81
2024/01/28 12:22:26;;;;;;;3.83;2.13;;;;;;;;;;6160664;23;20025;-81
2024/01/28 12:25:13;;;;;;;5.05;2.40;;;;;;;;;;6180797;23;20016;-81
2024/01/28 12:28:01;;;;;;;2.92;2.08;;;;;;;;;;6181554;23;20013;-81
2024/01/28 12:30:47;;;;;;;5.22;2.22;;;;;;;;;;6181516;23;20536;-81
2024/01/28 12:33:32;;;;;;;3.20;1.92;;;;;;;;;;6181835;23;20020;-81
2024/01/28 12:36:18;;;;;;;4.25;2.50;;;;;;;;;;6160514;23;20017;-81
2024/01/28 12:39:07;;;;;;;5.05;2.42;;;;;;;;;;6181849;23;20017;-81
2024/01/28 12:41:55;;;;;;;4.35;2.20;;;;;;;;;;6181169;23;20025;-81
2024/01/28 12:44:42;;;;;;;7.47;2.60;;;;;;;;;;6202742;23;20021;-81
2024/01/28 12:47:28;;;;;;;4.80;2.25;;;;;;;;;;6172579;23;20017;-81
2024/01/28 12:50:14;;;;;;;3.90;1.77;;;;;;;;;;6181039;23;20016;-81
2024/01/28 12:53:03;;;;;;;3.95;1.92;;;;;;;;;;6159364;23;20021;-80
2024/01/28 12:55:52;;;;;;;5.13;2.15;;;;;;;;;;6159933;23;20017;-81
2024/01/28 12:58:40;;;;;;;4.28;2.10;;;;;;;;;;6182066;23;20021;-81
2024/01/28 13:01:27;;;;;;;4.90;2.17;;;;;;;;;;6160281;23;20017;-81
2024/01/28 13:04:14;;;;;;;4.90;2.53;;;;;;;;;;6180841;23;20020;-82
2024/01/28 13:06:59;;;;;;;5.72;2.28;;;;;;;;;;6174355;23;20017;-82
2024/01/28 13:09:48;;;;;;;5.53;2.25;;;;;;;;;;6181585;23;20017;-81
2024/01/28 13:12:38;;;;;;;4.60;2.45;;;;;;;;;;6204093;23;20021;-81
2024/01/28 13:15:24;;;;;;;;;;;;;;;;;;6182278;23;20021;-81
2024/01/28 13:18:11;;;;;;;6.38;2.50;;;;;;;;;;6204165;23;19922;-82
2024/01/28 13:20:57;;;;;;;4.95;2.30;;;;;;;;;;6161163;23;20017;-81
2024/01/28 13:23:43;;;;;;;5.28;2.55;;;;;;;;;;6160476;23;20021;-82
2024/01/28 13:26:29;;;;;;;3.53;2.15;;;;;;;;;;6181019;23;20021;-81
2024/01/28 13:29:18;;;;;;;2.75;2.03;;;;;;;;;;6180561;23;20021;-82
2024/01/28 13:32:05;;;;;;;2.70;1.88;;;;;;;;;;6181179;23;20017;-82
2024/01/28 13:34:52;;;;;;;4.20;2.03;;;;;;;;;;6181282;23;20025;-81
2024/01/28 13:37:41;;;;;;;3.90;2.65;;;;;;;;;;6193828;23;20017;-81
2024/01/28 13:40:27;;;;;;;4.20;2.30;;;;;;;;;;6203827;23;20536;-82
2024/01/28 13:43:13;;;;;;;2.75;1.92;;;;;;;;;;6180457;23;20025;-82
2024/01/28 13:45:59;;;;;;;4.88;2.40;;;;;;;;;;6200704;23;20021;-81
2024/01/28 13:48:45;;;;;;;3.67;1.83;;;;;;;;;;6159802;23;20318;-82
2024/01/28 13:51:32;;;;;;;4.30;2.20;;;;;;;;;;6181003;23;20020;-82
2024/01/28 13:54:18;;;;;;;3.72;2.00;;;;;;;;;;6180009;23;20021;-82
2024/01/28 13:57:04;;;;;;;4.47;2.22;;;;;;;;;;6159789;23;20327;-81
2024/01/28 13:59:50;;;;;;;6.05;2.28;;;;;;;;;;6160000;23;20040;-82
2024/01/28 14:02:36;;;;;;;2.40;1.75;;;;;;;;;;6159801;23;20028;-81
2024/01/28 14:05:22;;;;;;;5.50;2.63;;;;;;;;;;6159164;23;20017;-81
2024/01/28 14:08:09;;;;;;;4.43;2.03;;;;;;;;;;6158815;23;20323;-81
2024/01/28 14:10:56;;;;;;;3.80;2.22;;;;;;;;;;6159239;23;20024;-81
2024/01/28 14:13:42;;;;;;;4.00;2.25;;;;;;;;;;6158583;23;20024;-81
2024/01/28 14:16:28;;;;;;;3.80;1.88;;;;;;;;;;6176108;23;20335;-81
2024/01/28 14:19:14;;;;;;;4.00;2.28;;;;;;;;;;6179496;23;20021;-82
2024/01/28 14:22:02;;;;;;;3.80;1.80;;;;;;;;;;6180318;23;20021;-82
2024/01/28 14:24:49;;;;;;;4.13;1.50;;;;;;;;;;6158811;23;20258;-79
2024/01/28 14:27:35;;;;;;;3.00;1.80;;;;;;;;;;6159866;23;20021;-81
2024/01/28 14:30:21;;;;;;;4.47;1.90;;;;;;;;;;6158816;23;20029;-80
2024/01/28 14:33:08;;;;;;;4.43;1.83;;;;;;;;;;6202049;23;20025;-80
2024/01/28 14:35:54;;;;;;;5.05;1.88;;;;;;;;;;6178702;23;20029;-81
2024/01/28 14:38:40;;;;;;;4.00;1.65;;;;;;;;;;6201186;23;20629;-80
2024/01/28 14:41:27;;;;;;;2.78;1.80;;;;;;;;;;6179414;23;20021;-81
2024/01/28 14:44:13;;;;;;;4.82;2.03;;;;;;;;;;6179420;23;20021;-81
2024/01/28 14:46:59;;;;;;;2.95;1.92;;;;;;;;;;6173296;23;20017;-81
2024/01/28 14:49:48;;;;;;;4.88;2.25;;;;;;;;;;6159490;23;20020;-81
2024/01/28 14:52:34;;;;;;;4.30;2.03;;;;;;;;;;6159820;23;20021;-82
2024/01/28 14:55:20;;;;;;;4.50;1.95;;;;;;;;;;6179923;23;20335;-82
2024/01/28 14:58:07;;;;;;;2.88;2.10;;;;;;;;;;6202595;23;20021;-82
2024/01/28 15:00:53;;;;;;;4.60;2.10;;;;;;;;;;6179705;23;20021;-81
2024/01/28 15:03:39;;;;;;;3.65;2.05;;;;;;;;;;6179450;23;20021;-82
2024/01/28 15:06:25;;;;;;;3.63;2.30;;;;;;;;;;6179633;23;20024;-82
2024/01/28 15:09:11;;;;;;;3.90;2.70;;;;;;;;;;6159127;23;20013;-82
2024/01/28 15:11:57;;;;;;;3.63;2.60;;;;;;;;;;6179767;23;20029;-82
2024/01/28 15:14:44;;;;;;;4.03;1.77;;;;;;;;;;6161287;23;20005;-82
2024/01/28 15:17:31;;;;;;;6.07;1.98;;;;;;;;;;6204474;23;20017;-79
2024/01/28 15:20:20;;;;;;;2.90;2.00;;;;;;;;;;6212369;23;20016;-79
2024/01/28 15:23:09;;;;;;;2.15;1.63;;;;;;;;;;6212023;23;20020;-79
2024/01/28 15:25:57;;;;;;;4.75;2.08;;;;;;;;;;6189961;23;20021;-80
2024/01/28 15:28:43;;;;;;;3.72;2.33;;;;;;;;;;6212025;23;20017;-80
2024/01/28 15:31:32;;;;;;;8.18;2.97;;;;;;;;;;6211920;23;20016;-80
2024/01/28 15:34:18;;;;;;;4.85;2.45;;;;;;;;;;6233878;23;20028;-79
2024/01/28 15:37:04;;;;;;;3.80;2.13;;;;;;;;;;6204019;23;20021;-80
2024/01/28 15:39:52;;;;;;;4.65;2.28;;;;;;;;;;6189659;23;20016;-80
2024/01/28 15:42:39;;;;;;;6.15;2.50;;;;;;;;;;6233232;23;20024;-79
2024/01/28 15:45:25;;;;;;;4.45;2.60;;;;;;;;;;6232943;23;20020;-80
2024/01/28 15:48:12;;;;;;;3.28;1.60;;;;;;;;;;6233874;23;20017;-80
2024/01/28 15:50:59;;;;;;;3.38;1.85;;;;;;;;;;6190086;23;20209;-80
2024/01/28 15:53:50;;;;;;;4.63;2.08;;;;;;;;;;6232895;23;20021;-79
2024/01/28 15:56:36;;;;;;;6.80;2.30;;;;;;;;;;6189406;23;20012;-79
2024/01/28 15:59:22;;;;;;;6.70;2.78;;;;;;;;;;6211724;23;20021;-80
2024/01/28 16:02:08;;;;;;;6.45;2.38;;;;;;;;;;6231778;23;20560;-80
2024/01/28 16:04:55;;;;;;;4.97;2.28;;;;;;;;;;6189477;23;20024;-80
2024/01/28 16:07:42;;;;;;;5.20;2.42;;;;;;;;;;6210941;23;20337;-80
2024/01/28 16:10:31;;;;;;;5.25;2.50;;;;;;;;;;6211197;23;20021;-79
2024/01/28 16:13:17;;;;;;;3.05;1.65;;;;;;;;;;6229629;23;20020;-80
2024/01/28 16:16:04;;;;;;;2.15;1.73;;;;;;;;;;6222814;23;20017;-80
2024/01/28 16:18:50;;;;;;;3.47;1.90;;;;;;;;;;6209913;23;20016;-78
2024/01/28 16:21:37;;;;;;;4.28;1.80;;;;;;;;;;6209858;23;20024;-80
2024/01/28 16:24:23;;;;;;;3.70;2.00;;;;;;;;;;6209123;23;20337;-79
2024/01/28 16:27:11;;;;;;;3.72;2.40;;;;;;;;;;6208948;23;20021;-79
2024/01/28 16:30:00;;;;;;;5.95;2.05;;;;;;;;;;6231943;23;20021;-79
2024/01/28 16:32:48;;;;;;;4.30;2.40;;;;;;;;;;6210347;23;20024;-79
2024/01/28 16:35:34;;;;;;;4.43;1.80;;;;;;;;;;6210667;23;20016;-81
2024/01/28 16:38:22;;;;;;;2.80;1.48;;;;;;;;;;6212438;23;20017;-81
2024/01/28 16:41:10;;;;;;;2.85;1.25;;;;;;;;;;6212020;23;20024;-79
2024/01/28 16:43:56;;;;;;;4.18;1.60;;;;;;;;;;6212039;23;20456;-79